KARA/ARA METAR and TAF weather

Enter ICAO airport designator
Station Type Date Time Source
KARA METAR 2021/06/24 04:53 UTC NOAA

KARA 240453Z AUTO 00000KT 10SM CLR 25/25 A3005 RMK AO2 SLP175 T02500250


Station Type Date Time Source
KARA Decoded METAR 2021/06/24 04:53 UTC NOAA

NEW IBERIA ACADIANA REGIONAL, LA, United States (KARA) 30-02N 091-53W 18M
Jun 24, 2021 - 12:53 AM EDT / 2021.06.24 0453 UTC
Wind: Calm:0
Visibility: 10 mile(s):0
Sky conditions: clear
Temperature: 77.0 F (25.0 C)
Dew Point: 77.0 F (25.0 C)
Relative Humidity: 100%
Pressure (altimeter): 30.05 in. Hg (1017 hPa)
ob: KARA 240453Z AUTO 00000KT 10SM CLR 25/25 A3005 RMK AO2 SLP175 T02500250
cycle: 5

Station Type Date Time Source
KARA TAF 2021/06/23 18:27 UTC NOAA

TAF KARA 231722Z 2318/2418 14007KT P6SM VCTS SCT025CB BKN050
TEMPO 2318/2320 5SM -TSRA BKN035CB
FM232100 19008KT P6SM SCT045 BKN150
FM240600 VRB04KT P6SM SCT020 BKN200

Example: see airport list